sensor_id;sensor_type;location;lat;lon;timestamp;P1;durP1;ratioP1;P2;durP2;ratioP2
12972;SDS011;6551;51.056;9.466;2023-03-01T00:00:41;11.23;;;7.30;;
12972;SDS011;6551;51.056;9.466;2023-03-01T00:03:11;12.37;;;8.80;;
12972;SDS011;6551;51.056;9.466;2023-03-01T00:05:48;11.67;;;8.60;;
12972;SDS011;6551;51.056;9.466;2023-03-01T00:08:14;32.83;;;17.83;;
12972;SDS011;6551;51.056;9.466;2023-03-01T00:10:40;62.67;;;30.57;;
12972;SDS011;6551;51.056;9.466;2023-03-01T00:13:06;28.93;;;15.73;;
12972;SDS011;6551;51.056;9.466;2023-03-01T00:15:32;14.03;;;8.17;;
12972;SDS011;6551;51.056;9.466;2023-03-01T00:18:00;24.27;;;14.33;;
12972;SDS011;6551;51.056;9.466;2023-03-01T00:20:27;13.60;;;8.67;;
12972;SDS011;6551;51.056;9.466;2023-03-01T00:22:55;13.97;;;8.57;;
12972;SDS011;6551;51.056;9.466;2023-03-01T00:25:20;12.77;;;8.20;;
12972;SDS011;6551;51.056;9.466;2023-03-01T00:27:46;11.10;;;8.17;;
12972;SDS011;6551;51.056;9.466;2023-03-01T00:30:14;12.23;;;8.10;;
12972;SDS011;6551;51.056;9.466;2023-03-01T00:32:41;12.17;;;7.70;;
12972;SDS011;6551;51.056;9.466;2023-03-01T00:35:06;10.47;;;7.20;;
12972;SDS011;6551;51.056;9.466;2023-03-01T00:37:32;14.13;;;7.97;;
12972;SDS011;6551;51.056;9.466;2023-03-01T00:39:58;11.10;;;7.07;;
12972;SDS011;6551;51.056;9.466;2023-03-01T00:42:26;15.50;;;8.07;;
12972;SDS011;6551;51.056;9.466;2023-03-01T00:44:53;10.60;;;7.77;;
12972;SDS011;6551;51.056;9.466;2023-03-01T00:47:18;9.67;;;6.50;;
12972;SDS011;6551;51.056;9.466;2023-03-01T00:49:46;11.03;;;7.47;;
12972;SDS011;6551;51.056;9.466;2023-03-01T00:52:12;12.93;;;7.53;;
12972;SDS011;6551;51.056;9.466;2023-03-01T00:54:37;10.90;;;7.53;;
12972;SDS011;6551;51.056;9.466;2023-03-01T00:57:04;10.80;;;6.63;;
12972;SDS011;6551;51.056;9.466;2023-03-01T00:59:30;11.20;;;7.90;;
12972;SDS011;6551;51.056;9.466;2023-03-01T01:01:56;13.80;;;8.00;;
12972;SDS011;6551;51.056;9.466;2023-03-01T01:04:25;10.50;;;7.90;;
12972;SDS011;6551;51.056;9.466;2023-03-01T01:06:51;12.53;;;7.87;;
12972;SDS011;6551;51.056;9.466;2023-03-01T01:09:17;12.73;;;7.93;;
12972;SDS011;6551;51.056;9.466;2023-03-01T01:11:46;11.90;;;7.87;;
12972;SDS011;6551;51.056;9.466;2023-03-01T01:14:13;16.93;;;8.97;;
12972;SDS011;6551;51.056;9.466;2023-03-01T01:16:41;13.10;;;8.70;;
12972;SDS011;6551;51.056;9.466;2023-03-01T01:19:10;13.60;;;7.83;;
12972;SDS011;6551;51.056;9.466;2023-03-01T01:21:39;13.30;;;8.47;;
12972;SDS011;6551;51.056;9.466;2023-03-01T01:24:08;11.27;;;8.00;;
12972;SDS011;6551;51.056;9.466;2023-03-01T01:26:34;12.43;;;8.30;;
12972;SDS011;6551;51.056;9.466;2023-03-01T01:29:01;14.63;;;7.63;;
12972;SDS011;6551;51.056;9.466;2023-03-01T01:31:30;12.60;;;8.60;;
12972;SDS011;6551;51.056;9.466;2023-03-01T01:33:58;11.00;;;7.53;;
12972;SDS011;6551;51.056;9.466;2023-03-01T01:36:25;12.47;;;8.37;;
12972;SDS011;6551;51.056;9.466;2023-03-01T01:38:53;11.30;;;8.57;;
12972;SDS011;6551;51.056;9.466;2023-03-01T01:41:20;12.17;;;8.30;;
12972;SDS011;6551;51.056;9.466;2023-03-01T01:43:48;12.77;;;8.13;;
12972;SDS011;6551;51.056;9.466;2023-03-01T01:46:35;13.03;;;8.03;;
12972;SDS011;6551;51.056;9.466;2023-03-01T01:49:14;15.47;;;8.37;;
12972;SDS011;6551;51.056;9.466;2023-03-01T01:54:44;13.93;;;8.57;;
12972;SDS011;6551;51.056;9.466;2023-03-01T01:57:18;13.03;;;7.57;;
12972;SDS011;6551;51.056;9.466;2023-03-01T01:59:50;14.23;;;8.77;;
12972;SDS011;6551;51.056;9.466;2023-03-01T02:02:21;12.40;;;8.47;;
12972;SDS011;6551;51.056;9.466;2023-03-01T02:04:49;19.97;;;12.40;;
12972;SDS011;6551;51.056;9.466;2023-03-01T02:07:19;11.87;;;8.80;;
12972;SDS011;6551;51.056;9.466;2023-03-01T02:09:49;13.20;;;9.37;;
12972;SDS011;6551;51.056;9.466;2023-03-01T02:12:17;11.53;;;8.40;;
12972;SDS011;6551;51.056;9.466;2023-03-01T02:14:49;11.73;;;7.87;;
12972;SDS011;6551;51.056;9.466;2023-03-01T02:17:15;12.07;;;8.33;;
12972;SDS011;6551;51.056;9.466;2023-03-01T02:22:34;12.10;;;8.53;;
12972;SDS011;6551;51.056;9.466;2023-03-01T02:30:49;10.90;;;8.00;;
12972;SDS011;6551;51.056;9.466;2023-03-01T02:33:35;14.77;;;7.87;;
12972;SDS011;6551;51.056;9.466;2023-03-01T02:36:04;13.03;;;8.73;;
12972;SDS011;6551;51.056;9.466;2023-03-01T02:38:34;13.50;;;8.83;;
12972;SDS011;6551;51.056;9.466;2023-03-01T02:41:00;17.43;;;8.63;;
12972;SDS011;6551;51.056;9.466;2023-03-01T02:43:30;13.43;;;8.80;;
12972;SDS011;6551;51.056;9.466;2023-03-01T02:45:59;14.07;;;8.83;;
12972;SDS011;6551;51.056;9.466;2023-03-01T02:48:39;19.27;;;9.97;;
12972;SDS011;6551;51.056;9.466;2023-03-01T02:51:26;10.77;;;7.73;;
12972;SDS011;6551;51.056;9.466;2023-03-01T02:54:22;12.20;;;8.60;;
12972;SDS011;6551;51.056;9.466;2023-03-01T02:56:58;12.00;;;7.63;;
12972;SDS011;6551;51.056;9.466;2023-03-01T02:59:30;14.00;;;8.40;;
12972;SDS011;6551;51.056;9.466;2023-03-01T03:02:07;12.03;;;7.97;;
12972;SDS011;6551;51.056;9.466;2023-03-01T03:04:47;12.80;;;8.70;;
12972;SDS011;6551;51.056;9.466;2023-03-01T03:07:13;14.73;;;9.40;;
12972;SDS011;6551;51.056;9.466;2023-03-01T03:09:40;14.20;;;8.50;;
12972;SDS011;6551;51.056;9.466;2023-03-01T03:12:05;15.23;;;10.07;;
12972;SDS011;6551;51.056;9.466;2023-03-01T03:14:32;14.10;;;9.03;;
12972;SDS011;6551;51.056;9.466;2023-03-01T03:16:59;12.23;;;8.60;;
12972;SDS011;6551;51.056;9.466;2023-03-01T03:19:25;17.17;;;8.97;;
12972;SDS011;6551;51.056;9.466;2023-03-01T03:21:52;15.03;;;9.33;;
12972;SDS011;6551;51.056;9.466;2023-03-01T03:24:18;14.63;;;9.60;;
12972;SDS011;6551;51.056;9.466;2023-03-01T03:26:45;14.40;;;9.47;;
12972;SDS011;6551;51.056;9.466;2023-03-01T03:29:10;15.77;;;10.27;;
12972;SDS011;6551;51.056;9.466;2023-03-01T03:31:37;16.57;;;9.90;;
12972;SDS011;6551;51.056;9.466;2023-03-01T03:34:02;13.30;;;9.47;;
12972;SDS011;6551;51.056;9.466;2023-03-01T03:36:29;16.07;;;10.30;;
12972;SDS011;6551;51.056;9.466;2023-03-01T03:38:56;16.80;;;8.73;;
12972;SDS011;6551;51.056;9.466;2023-03-01T03:41:22;16.00;;;9.53;;
12972;SDS011;6551;51.056;9.466;2023-03-01T03:43:49;14.67;;;9.20;;
12972;SDS011;6551;51.056;9.466;2023-03-01T03:46:15;14.37;;;8.50;;
12972;SDS011;6551;51.056;9.466;2023-03-01T03:48:42;15.50;;;8.53;;
12972;SDS011;6551;51.056;9.466;2023-03-01T03:51:13;13.00;;;7.77;;
12972;SDS011;6551;51.056;9.466;2023-03-01T03:53:41;12.80;;;8.63;;
12972;SDS011;6551;51.056;9.466;2023-03-01T03:56:09;15.20;;;8.53;;
12972;SDS011;6551;51.056;9.466;2023-03-01T03:58:36;13.33;;;8.57;;
12972;SDS011;6551;51.056;9.466;2023-03-01T04:01:03;13.53;;;8.23;;
12972;SDS011;6551;51.056;9.466;2023-03-01T04:03:31;13.03;;;8.73;;
12972;SDS011;6551;51.056;9.466;2023-03-01T04:05:57;13.10;;;8.70;;
12972;SDS011;6551;51.056;9.466;2023-03-01T04:08:25;11.60;;;8.57;;
12972;SDS011;6551;51.056;9.466;2023-03-01T04:10:57;10.87;;;8.37;;
12972;SDS011;6551;51.056;9.466;2023-03-01T04:13:45;12.03;;;8.73;;
12972;SDS011;6551;51.056;9.466;2023-03-01T04:16:11;14.80;;;8.70;;
12972;SDS011;6551;51.056;9.466;2023-03-01T04:18:37;31.80;;;15.23;;
12972;SDS011;6551;51.056;9.466;2023-03-01T04:21:04;34.33;;;14.67;;
12972;SDS011;6551;51.056;9.466;2023-03-01T04:23:31;21.17;;;10.27;;
12972;SDS011;6551;51.056;9.466;2023-03-01T04:25:58;17.00;;;9.07;;
12972;SDS011;6551;51.056;9.466;2023-03-01T04:28:26;13.43;;;8.77;;
12972;SDS011;6551;51.056;9.466;2023-03-01T04:31:14;13.70;;;8.90;;
12972;SDS011;6551;51.056;9.466;2023-03-01T04:33:45;13.90;;;9.53;;
12972;SDS011;6551;51.056;9.466;2023-03-01T04:36:18;11.57;;;8.80;;
12972;SDS011;6551;51.056;9.466;2023-03-01T04:38:47;14.70;;;9.50;;
12972;SDS011;6551;51.056;9.466;2023-03-01T04:41:13;12.77;;;9.07;;
12972;SDS011;6551;51.056;9.466;2023-03-01T04:44:00;14.77;;;9.70;;
12972;SDS011;6551;51.056;9.466;2023-03-01T04:46:26;15.87;;;10.50;;
12972;SDS011;6551;51.056;9.466;2023-03-01T04:48:53;19.70;;;11.17;;
12972;SDS011;6551;51.056;9.466;2023-03-01T04:51:21;17.50;;;10.50;;
12972;SDS011;6551;51.056;9.466;2023-03-01T04:53:46;56.20;;;25.00;;
12972;SDS011;6551;51.056;9.466;2023-03-01T04:56:14;34.37;;;15.83;;
12972;SDS011;6551;51.056;9.466;2023-03-01T04:58:43;44.10;;;17.93;;
12972;SDS011;6551;51.056;9.466;2023-03-01T05:01:10;23.33;;;13.43;;
12972;SDS011;6551;51.056;9.466;2023-03-01T05:03:44;14.33;;;8.97;;
12972;SDS011;6551;51.056;9.466;2023-03-01T05:06:13;16.03;;;9.30;;
12972;SDS011;6551;51.056;9.466;2023-03-01T05:08:41;21.63;;;9.40;;
12972;SDS011;6551;51.056;9.466;2023-03-01T05:11:07;13.37;;;9.73;;
12972;SDS011;6551;51.056;9.466;2023-03-01T05:13:36;14.53;;;9.37;;
12972;SDS011;6551;51.056;9.466;2023-03-01T05:16:03;13.80;;;9.80;;
12972;SDS011;6551;51.056;9.466;2023-03-01T05:18:32;23.83;;;13.43;;
12972;SDS011;6551;51.056;9.466;2023-03-01T05:21:12;16.43;;;10.67;;
12972;SDS011;6551;51.056;9.466;2023-03-01T05:23:42;16.40;;;9.80;;
12972;SDS011;6551;51.056;9.466;2023-03-01T05:26:08;18.03;;;10.03;;
12972;SDS011;6551;51.056;9.466;2023-03-01T05:28:34;16.17;;;9.67;;
12972;SDS011;6551;51.056;9.466;2023-03-01T05:31:01;19.80;;;10.00;;
12972;SDS011;6551;51.056;9.466;2023-03-01T05:33:27;15.83;;;10.57;;
12972;SDS011;6551;51.056;9.466;2023-03-01T05:35:53;15.67;;;10.00;;
12972;SDS011;6551;51.056;9.466;2023-03-01T05:38:20;14.53;;;9.90;;
12972;SDS011;6551;51.056;9.466;2023-03-01T05:40:47;18.10;;;10.40;;
12972;SDS011;6551;51.056;9.466;2023-03-01T05:43:14;15.73;;;10.77;;
12972;SDS011;6551;51.056;9.466;2023-03-01T05:45:41;17.43;;;10.67;;
12972;SDS011;6551;51.056;9.466;2023-03-01T05:48:08;15.47;;;9.67;;
12972;SDS011;6551;51.056;9.466;2023-03-01T05:50:37;16.80;;;10.97;;
12972;SDS011;6551;51.056;9.466;2023-03-01T05:53:11;16.20;;;10.33;;
12972;SDS011;6551;51.056;9.466;2023-03-01T05:55:47;18.93;;;11.47;;
12972;SDS011;6551;51.056;9.466;2023-03-01T05:58:16;17.37;;;10.77;;
12972;SDS011;6551;51.056;9.466;2023-03-01T06:00:45;15.30;;;10.57;;
12972;SDS011;6551;51.056;9.466;2023-03-01T06:03:13;19.17;;;11.70;;
12972;SDS011;6551;51.056;9.466;2023-03-01T06:05:42;20.37;;;12.20;;
12972;SDS011;6551;51.056;9.466;2023-03-01T06:08:10;26.27;;;11.60;;
12972;SDS011;6551;51.056;9.466;2023-03-01T06:10:37;15.70;;;10.03;;
12972;SDS011;6551;51.056;9.466;2023-03-01T06:13:04;14.53;;;9.40;;
12972;SDS011;6551;51.056;9.466;2023-03-01T06:15:30;18.93;;;10.87;;
12972;SDS011;6551;51.056;9.466;2023-03-01T06:17:55;16.07;;;10.13;;
12972;SDS011;6551;51.056;9.466;2023-03-01T06:20:25;19.53;;;11.97;;
12972;SDS011;6551;51.056;9.466;2023-03-01T06:22:53;46.87;;;31.30;;
12972;SDS011;6551;51.056;9.466;2023-03-01T06:25:20;24.47;;;16.63;;
12972;SDS011;6551;51.056;9.466;2023-03-01T06:27:49;22.33;;;15.03;;
12972;SDS011;6551;51.056;9.466;2023-03-01T06:30:17;14.27;;;10.27;;
12972;SDS011;6551;51.056;9.466;2023-03-01T06:32:46;12.63;;;8.57;;
12972;SDS011;6551;51.056;9.466;2023-03-01T06:35:15;14.80;;;10.27;;
12972;SDS011;6551;51.056;9.466;2023-03-01T06:37:45;17.73;;;10.43;;
12972;SDS011;6551;51.056;9.466;2023-03-01T06:40:12;16.70;;;9.93;;
12972;SDS011;6551;51.056;9.466;2023-03-01T06:42:41;15.17;;;9.60;;
12972;SDS011;6551;51.056;9.466;2023-03-01T06:45:12;26.60;;;14.40;;
12972;SDS011;6551;51.056;9.466;2023-03-01T06:47:38;15.97;;;10.07;;
12972;SDS011;6551;51.056;9.466;2023-03-01T06:50:04;15.53;;;10.10;;
12972;SDS011;6551;51.056;9.466;2023-03-01T06:52:33;13.10;;;9.03;;
12972;SDS011;6551;51.056;9.466;2023-03-01T06:54:59;14.93;;;9.37;;
12972;SDS011;6551;51.056;9.466;2023-03-01T06:57:25;13.20;;;8.87;;
12972;SDS011;6551;51.056;9.466;2023-03-01T06:59:51;21.23;;;11.77;;
12972;SDS011;6551;51.056;9.466;2023-03-01T07:02:20;20.10;;;10.67;;
12972;SDS011;6551;51.056;9.466;2023-03-01T07:04:48;23.70;;;12.17;;
12972;SDS011;6551;51.056;9.466;2023-03-01T07:07:17;37.93;;;18.30;;
12972;SDS011;6551;51.056;9.466;2023-03-01T07:09:44;15.30;;;10.30;;
12972;SDS011;6551;51.056;9.466;2023-03-01T07:12:11;14.20;;;10.00;;
12972;SDS011;6551;51.056;9.466;2023-03-01T07:14:37;15.77;;;10.37;;
12972;SDS011;6551;51.056;9.466;2023-03-01T07:17:03;12.13;;;8.57;;
12972;SDS011;6551;51.056;9.466;2023-03-01T07:19:29;12.97;;;8.20;;
12972;SDS011;6551;51.056;9.466;2023-03-01T07:21:55;12.50;;;8.17;;
12972;SDS011;6551;51.056;9.466;2023-03-01T07:24:22;11.97;;;8.63;;
12972;SDS011;6551;51.056;9.466;2023-03-01T07:26:49;14.67;;;8.10;;
12972;SDS011;6551;51.056;9.466;2023-03-01T07:29:17;15.83;;;7.70;;
12972;SDS011;6551;51.056;9.466;2023-03-01T07:31:43;13.53;;;8.20;;
12972;SDS011;6551;51.056;9.466;2023-03-01T07:34:10;13.50;;;9.10;;
12972;SDS011;6551;51.056;9.466;2023-03-01T07:36:37;11.35;;;8.40;;
12972;SDS011;6551;51.056;9.466;2023-03-01T07:39:04;13.73;;;8.77;;
12972;SDS011;6551;51.056;9.466;2023-03-01T07:41:30;9.47;;;7.47;;
12972;SDS011;6551;51.056;9.466;2023-03-01T07:43:56;12.03;;;7.93;;
12972;SDS011;6551;51.056;9.466;2023-03-01T07:46:23;10.77;;;8.10;;
12972;SDS011;6551;51.056;9.466;2023-03-01T07:48:50;14.87;;;8.80;;
12972;SDS011;6551;51.056;9.466;2023-03-01T07:51:18;15.27;;;9.00;;
12972;SDS011;6551;51.056;9.466;2023-03-01T07:53:45;11.60;;;8.43;;
12972;SDS011;6551;51.056;9.466;2023-03-01T07:56:13;15.27;;;8.80;;
12972;SDS011;6551;51.056;9.466;2023-03-01T07:58:45;14.47;;;8.57;;
12972;SDS011;6551;51.056;9.466;2023-03-01T08:01:13;10.33;;;7.43;;
12972;SDS011;6551;51.056;9.466;2023-03-01T08:03:42;9.73;;;7.33;;
12972;SDS011;6551;51.056;9.466;2023-03-01T08:06:09;12.70;;;7.70;;
12972;SDS011;6551;51.056;9.466;2023-03-01T08:08:36;11.90;;;8.23;;
12972;SDS011;6551;51.056;9.466;2023-03-01T08:11:03;14.60;;;8.27;;
12972;SDS011;6551;51.056;9.466;2023-03-01T08:13:30;10.43;;;6.40;;
12972;SDS011;6551;51.056;9.466;2023-03-01T08:16:31;14.57;;;8.10;;
12972;SDS011;6551;51.056;9.466;2023-03-01T08:18:51;28.87;;;17.23;;
12972;SDS011;6551;51.056;9.466;2023-03-01T08:21:18;11.57;;;7.43;;
12972;SDS011;6551;51.056;9.466;2023-03-01T08:23:45;16.47;;;8.03;;
12972;SDS011;6551;51.056;9.466;2023-03-01T08:26:19;10.17;;;7.00;;
12972;SDS011;6551;51.056;9.466;2023-03-01T08:28:48;12.43;;;6.63;;
12972;SDS011;6551;51.056;9.466;2023-03-01T08:31:22;9.73;;;6.10;;
12972;SDS011;6551;51.056;9.466;2023-03-01T08:33:55;9.20;;;6.63;;
12972;SDS011;6551;51.056;9.466;2023-03-01T08:36:23;7.93;;;5.07;;
12972;SDS011;6551;51.056;9.466;2023-03-01T08:38:55;9.40;;;6.27;;
12972;SDS011;6551;51.056;9.466;2023-03-01T08:41:23;11.97;;;6.53;;
12972;SDS011;6551;51.056;9.466;2023-03-01T08:43:51;10.17;;;6.27;;
12972;SDS011;6551;51.056;9.466;2023-03-01T08:46:19;10.40;;;6.73;;
12972;SDS011;6551;51.056;9.466;2023-03-01T08:48:45;9.43;;;5.77;;
12972;SDS011;6551;51.056;9.466;2023-03-01T08:51:13;10.07;;;6.40;;
12972;SDS011;6551;51.056;9.466;2023-03-01T08:53:42;8.83;;;6.03;;
12972;SDS011;6551;51.056;9.466;2023-03-01T08:56:10;10.13;;;6.27;;
12972;SDS011;6551;51.056;9.466;2023-03-01T08:58:37;11.43;;;6.13;;
12972;SDS011;6551;51.056;9.466;2023-03-01T09:01:08;10.37;;;6.40;;
12972;SDS011;6551;51.056;9.466;2023-03-01T09:03:41;8.77;;;6.07;;
12972;SDS011;6551;51.056;9.466;2023-03-01T09:06:07;9.60;;;5.80;;
12972;SDS011;6551;51.056;9.466;2023-03-01T09:08:34;10.97;;;6.70;;
12972;SDS011;6551;51.056;9.466;2023-03-01T09:11:04;12.43;;;7.90;;
12972;SDS011;6551;51.056;9.466;2023-03-01T09:13:32;13.03;;;8.20;;
12972;SDS011;6551;51.056;9.466;2023-03-01T09:16:01;14.13;;;9.37;;
12972;SDS011;6551;51.056;9.466;2023-03-01T09:18:29;8.37;;;5.73;;
12972;SDS011;6551;51.056;9.466;2023-03-01T09:21:05;10.37;;;6.53;;
12972;SDS011;6551;51.056;9.466;2023-03-01T09:23:53;10.60;;;7.10;;
12972;SDS011;6551;51.056;9.466;2023-03-01T09:26:22;10.70;;;6.60;;
12972;SDS011;6551;51.056;9.466;2023-03-01T09:28:49;10.30;;;6.27;;
12972;SDS011;6551;51.056;9.466;2023-03-01T09:31:17;10.23;;;5.83;;
12972;SDS011;6551;51.056;9.466;2023-03-01T09:33:49;10.03;;;6.47;;
12972;SDS011;6551;51.056;9.466;2023-03-01T09:36:20;12.47;;;6.63;;
12972;SDS011;6551;51.056;9.466;2023-03-01T09:38:49;10.40;;;6.30;;
12972;SDS011;6551;51.056;9.466;2023-03-01T09:47:34;10.43;;;7.00;;
12972;SDS011;6551;51.056;9.466;2023-03-01T09:50:04;9.47;;;5.70;;
12972;SDS011;6551;51.056;9.466;2023-03-01T10:01:34;12.87;;;7.30;;
12972;SDS011;6551;51.056;9.466;2023-03-01T10:09:56;9.27;;;6.80;;
12972;SDS011;6551;51.056;9.466;2023-03-01T10:12:24;10.53;;;6.30;;
12972;SDS011;6551;51.056;9.466;2023-03-01T10:15:00;10.73;;;6.40;;
12972;SDS011;6551;51.056;9.466;2023-03-01T10:17:56;10.43;;;7.20;;
12972;SDS011;6551;51.056;9.466;2023-03-01T10:20:41;9.83;;;7.00;;
12972;SDS011;6551;51.056;9.466;2023-03-01T10:23:25;10.60;;;6.57;;
12972;SDS011;6551;51.056;9.466;2023-03-01T10:31:38;13.47;;;7.73;;
12972;SDS011;6551;51.056;9.466;2023-03-01T10:36:43;10.30;;;7.00;;
12972;SDS011;6551;51.056;9.466;2023-03-01T10:39:21;14.70;;;8.83;;
12972;SDS011;6551;51.056;9.466;2023-03-01T10:42:19;9.23;;;6.43;;
12972;SDS011;6551;51.056;9.466;2023-03-01T10:44:57;9.47;;;7.10;;
12972;SDS011;6551;51.056;9.466;2023-03-01T10:47:41;10.83;;;6.67;;
12972;SDS011;6551;51.056;9.466;2023-03-01T10:50:24;12.50;;;8.00;;
12972;SDS011;6551;51.056;9.466;2023-03-01T10:53:00;11.50;;;7.00;;
12972;SDS011;6551;51.056;9.466;2023-03-01T10:55:35;8.40;;;6.40;;
12972;SDS011;6551;51.056;9.466;2023-03-01T11:00:59;12.53;;;7.57;;
12972;SDS011;6551;51.056;9.466;2023-03-01T11:03:28;14.67;;;9.57;;
12972;SDS011;6551;51.056;9.466;2023-03-01T11:08:51;11.17;;;7.70;;
12972;SDS011;6551;51.056;9.466;2023-03-01T11:16:42;12.60;;;6.90;;
12972;SDS011;6551;51.056;9.466;2023-03-01T11:19:19;10.30;;;7.70;;
12972;SDS011;6551;51.056;9.466;2023-03-01T11:22:03;12.60;;;7.63;;
12972;SDS011;6551;51.056;9.466;2023-03-01T11:24:48;9.97;;;6.27;;
12972;SDS011;6551;51.056;9.466;2023-03-01T11:36:36;9.33;;;6.60;;
12972;SDS011;6551;51.056;9.466;2023-03-01T11:45:12;11.87;;;6.50;;
12972;SDS011;6551;51.056;9.466;2023-03-01T11:51:05;9.90;;;6.10;;
12972;SDS011;6551;51.056;9.466;2023-03-01T11:53:49;18.07;;;9.87;;
12972;SDS011;6551;51.056;9.466;2023-03-01T11:56:45;9.27;;;6.00;;
12972;SDS011;6551;51.056;9.466;2023-03-01T11:59:20;10.57;;;6.73;;
12972;SDS011;6551;51.056;9.466;2023-03-01T12:02:21;10.43;;;6.80;;
12972;SDS011;6551;51.056;9.466;2023-03-01T12:20:39;8.93;;;5.87;;
12972;SDS011;6551;51.056;9.466;2023-03-01T12:26:35;8.73;;;5.70;;
12972;SDS011;6551;51.056;9.466;2023-03-01T12:50:26;10.87;;;7.17;;
12972;SDS011;6551;51.056;9.466;2023-03-01T12:53:32;10.27;;;6.87;;
12972;SDS011;6551;51.056;9.466;2023-03-01T12:56:08;16.63;;;8.10;;
12972;SDS011;6551;51.056;9.466;2023-03-01T13:01:45;18.97;;;9.23;;
12972;SDS011;6551;51.056;9.466;2023-03-01T13:10:22;9.77;;;5.73;;
12972;SDS011;6551;51.056;9.466;2023-03-01T13:13:14;7.90;;;4.93;;
12972;SDS011;6551;51.056;9.466;2023-03-01T13:15:51;10.00;;;7.27;;
12972;SDS011;6551;51.056;9.466;2023-03-01T13:20:53;10.07;;;5.73;;
12972;SDS011;6551;51.056;9.466;2023-03-01T13:23:26;7.53;;;5.50;;
12972;SDS011;6551;51.056;9.466;2023-03-01T13:33:58;10.80;;;5.90;;
12972;SDS011;6551;51.056;9.466;2023-03-01T13:46:52;10.53;;;5.73;;
12972;SDS011;6551;51.056;9.466;2023-03-01T13:49:23;9.40;;;6.23;;
12972;SDS011;6551;51.056;9.466;2023-03-01T13:51:53;10.27;;;5.67;;
12972;SDS011;6551;51.056;9.466;2023-03-01T13:54:25;11.70;;;7.77;;
12972;SDS011;6551;51.056;9.466;2023-03-01T13:56:57;14.90;;;8.17;;
12972;SDS011;6551;51.056;9.466;2023-03-01T13:59:25;22.73;;;10.60;;
12972;SDS011;6551;51.056;9.466;2023-03-01T14:01:54;18.20;;;9.70;;
12972;SDS011;6551;51.056;9.466;2023-03-01T14:04:26;9.57;;;6.17;;
12972;SDS011;6551;51.056;9.466;2023-03-01T14:09:51;8.00;;;5.60;;
12972;SDS011;6551;51.056;9.466;2023-03-01T14:15:24;8.10;;;5.50;;
12972;SDS011;6551;51.056;9.466;2023-03-01T14:18:20;9.00;;;5.57;;
12972;SDS011;6551;51.056;9.466;2023-03-01T14:21:14;8.53;;;5.53;;
12972;SDS011;6551;51.056;9.466;2023-03-01T14:23:42;9.63;;;5.30;;
12972;SDS011;6551;51.056;9.466;2023-03-01T14:26:08;9.17;;;5.73;;
12972;SDS011;6551;51.056;9.466;2023-03-01T14:28:37;13.70;;;7.07;;
12972;SDS011;6551;51.056;9.466;2023-03-01T14:31:29;11.40;;;5.43;;
12972;SDS011;6551;51.056;9.466;2023-03-01T14:33:58;8.20;;;5.47;;
12972;SDS011;6551;51.056;9.466;2023-03-01T14:36:26;10.07;;;6.17;;
12972;SDS011;6551;51.056;9.466;2023-03-01T14:38:53;13.57;;;8.43;;
12972;SDS011;6551;51.056;9.466;2023-03-01T14:41:23;11.73;;;7.33;;
12972;SDS011;6551;51.056;9.466;2023-03-01T14:43:58;13.57;;;8.20;;
12972;SDS011;6551;51.056;9.466;2023-03-01T14:49:06;11.40;;;6.63;;
12972;SDS011;6551;51.056;9.466;2023-03-01T14:51:37;13.23;;;7.67;;
12972;SDS011;6551;51.056;9.466;2023-03-01T14:54:10;9.87;;;6.30;;
12972;SDS011;6551;51.056;9.466;2023-03-01T14:56:57;11.97;;;5.93;;
12972;SDS011;6551;51.056;9.466;2023-03-01T14:59:26;8.20;;;6.27;;
12972;SDS011;6551;51.056;9.466;2023-03-01T15:01:55;10.23;;;6.20;;
12972;SDS011;6551;51.056;9.466;2023-03-01T15:04:23;8.93;;;5.90;;
12972;SDS011;6551;51.056;9.466;2023-03-01T15:06:51;11.63;;;6.77;;
12972;SDS011;6551;51.056;9.466;2023-03-01T15:09:19;8.47;;;5.97;;
12972;SDS011;6551;51.056;9.466;2023-03-01T15:11:48;12.30;;;6.87;;
12972;SDS011;6551;51.056;9.466;2023-03-01T15:17:41;12.07;;;7.33;;
12972;SDS011;6551;51.056;9.466;2023-03-01T15:20:04;23.30;;;13.43;;
12972;SDS011;6551;51.056;9.466;2023-03-01T15:22:46;12.47;;;7.57;;
12972;SDS011;6551;51.056;9.466;2023-03-01T15:25:21;10.77;;;6.97;;
12972;SDS011;6551;51.056;9.466;2023-03-01T15:27:51;12.87;;;5.87;;
12972;SDS011;6551;51.056;9.466;2023-03-01T15:30:22;11.50;;;6.67;;
12972;SDS011;6551;51.056;9.466;2023-03-01T15:33:19;11.73;;;6.20;;
12972;SDS011;6551;51.056;9.466;2023-03-01T15:36:01;10.17;;;5.33;;
12972;SDS011;6551;51.056;9.466;2023-03-01T15:38:53;7.07;;;4.67;;
12972;SDS011;6551;51.056;9.466;2023-03-01T15:43:50;8.47;;;5.00;;
12972;SDS011;6551;51.056;9.466;2023-03-01T15:46:29;9.50;;;5.07;;
12972;SDS011;6551;51.056;9.466;2023-03-01T15:49:05;10.90;;;5.80;;
12972;SDS011;6551;51.056;9.466;2023-03-01T15:52:04;15.47;;;7.20;;
12972;SDS011;6551;51.056;9.466;2023-03-01T15:54:38;5.30;;;3.90;;
12972;SDS011;6551;51.056;9.466;2023-03-01T15:57:15;7.43;;;4.47;;
12972;SDS011;6551;51.056;9.466;2023-03-01T15:59:41;6.93;;;4.23;;
12972;SDS011;6551;51.056;9.466;2023-03-01T16:02:13;10.47;;;3.93;;
12972;SDS011;6551;51.056;9.466;2023-03-01T16:04:40;7.53;;;3.93;;
12972;SDS011;6551;51.056;9.466;2023-03-01T16:07:05;6.33;;;3.70;;
12972;SDS011;6551;51.056;9.466;2023-03-01T16:09:34;7.00;;;4.60;;
12972;SDS011;6551;51.056;9.466;2023-03-01T16:12:00;6.30;;;3.80;;
12972;SDS011;6551;51.056;9.466;2023-03-01T16:14:26;5.73;;;3.53;;
12972;SDS011;6551;51.056;9.466;2023-03-01T16:16:53;6.50;;;4.57;;
12972;SDS011;6551;51.056;9.466;2023-03-01T16:19:20;7.17;;;3.90;;
12972;SDS011;6551;51.056;9.466;2023-03-01T16:21:48;6.73;;;4.43;;
12972;SDS011;6551;51.056;9.466;2023-03-01T16:24:15;6.10;;;3.83;;
12972;SDS011;6551;51.056;9.466;2023-03-01T16:26:44;7.23;;;3.63;;
12972;SDS011;6551;51.056;9.466;2023-03-01T16:29:10;6.87;;;4.00;;
12972;SDS011;6551;51.056;9.466;2023-03-01T16:31:36;7.40;;;3.70;;
12972;SDS011;6551;51.056;9.466;2023-03-01T16:34:04;8.93;;;5.33;;
12972;SDS011;6551;51.056;9.466;2023-03-01T16:36:30;4.67;;;3.17;;
12972;SDS011;6551;51.056;9.466;2023-03-01T16:38:58;8.17;;;4.10;;
12972;SDS011;6551;51.056;9.466;2023-03-01T16:41:26;8.73;;;4.57;;
12972;SDS011;6551;51.056;9.466;2023-03-01T16:43:54;10.13;;;5.30;;
12972;SDS011;6551;51.056;9.466;2023-03-01T16:46:25;6.77;;;4.43;;
12972;SDS011;6551;51.056;9.466;2023-03-01T16:48:54;6.53;;;3.73;;
12972;SDS011;6551;51.056;9.466;2023-03-01T16:51:23;5.90;;;4.40;;
12972;SDS011;6551;51.056;9.466;2023-03-01T16:53:51;6.53;;;4.27;;
12972;SDS011;6551;51.056;9.466;2023-03-01T16:56:19;8.00;;;4.43;;
12972;SDS011;6551;51.056;9.466;2023-03-01T16:58:45;7.03;;;4.20;;
12972;SDS011;6551;51.056;9.466;2023-03-01T17:01:14;6.33;;;4.03;;
12972;SDS011;6551;51.056;9.466;2023-03-01T17:03:45;7.40;;;4.40;;
12972;SDS011;6551;51.056;9.466;2023-03-01T17:06:15;7.17;;;4.30;;
12972;SDS011;6551;51.056;9.466;2023-03-01T17:08:45;7.10;;;4.30;;
12972;SDS011;6551;51.056;9.466;2023-03-01T17:11:13;7.67;;;4.73;;
12972;SDS011;6551;51.056;9.466;2023-03-01T17:13:43;6.77;;;4.40;;
12972;SDS011;6551;51.056;9.466;2023-03-01T17:16:13;7.23;;;4.37;;
12972;SDS011;6551;51.056;9.466;2023-03-01T17:18:42;4.23;;;3.40;;
12972;SDS011;6551;51.056;9.466;2023-03-01T17:21:09;8.37;;;4.87;;
12972;SDS011;6551;51.056;9.466;2023-03-01T17:23:38;8.43;;;4.67;;
12972;SDS011;6551;51.056;9.466;2023-03-01T17:26:07;5.80;;;4.20;;
12972;SDS011;6551;51.056;9.466;2023-03-01T17:28:35;10.57;;;6.60;;
12972;SDS011;6551;51.056;9.466;2023-03-01T17:31:03;10.07;;;5.67;;
12972;SDS011;6551;51.056;9.466;2023-03-01T17:33:31;8.17;;;5.77;;
12972;SDS011;6551;51.056;9.466;2023-03-01T17:35:58;7.87;;;4.77;;
12972;SDS011;6551;51.056;9.466;2023-03-01T17:38:24;8.20;;;5.27;;
12972;SDS011;6551;51.056;9.466;2023-03-01T17:40:50;10.90;;;5.63;;
12972;SDS011;6551;51.056;9.466;2023-03-01T17:43:17;6.27;;;4.70;;